Time,TemperatureF,DewpointF,PressureIn,WindDirection,WindDirectionDegrees,WindSpeedMPH,WindSpeedGustMPH,Humidity,HourlyPrecipIn,Conditions,Clouds,dailyrainin,SoftwareType,DateUTC
2014-02-23 00:02:00,25.3,21.0,30.00,SW,217,0.0,-999.0,84,-99.99,,,0.00,weatherlink.com 1.10,2014-02-23 05:02:00,
2014-02-23 00:32:00,24.7,21.0,29.99,SW,217,0.0,-999.0,85,-99.99,,,0.00,weatherlink.com 1.10,2014-02-23 05:32:00,
2014-02-23 00:47:00,24.5,21.0,30.01,SW,217,0.0,-999.0,85,-99.99,,,0.00,weatherlink.com 1.10,2014-02-23 05:47:00,
2014-02-23 01:17:00,24.5,21.0,30.02,SW,217,0.0,-999.0,86,-99.99,,,0.00,weatherlink.com 1.10,2014-02-23 06:17:00,
2014-02-23 01:32:00,24.3,21.0,30.02,SW,217,0.0,-999.0,86,-99.99,,,0.00,weatherlink.com 1.10,2014-02-23 06:32:00,
2014-02-23 01:47:00,24.2,21.0,30.02,SW,217,0.0,-999.0,86,-99.99,,,0.00,weatherlink.com 1.10,2014-02-23 06:47:00,
2014-02-23 02:02:00,23.9,21.0,30.01,SW,217,0.0,-999.0,87,-99.99,,,0.00,weatherlink.com 1.10,2014-02-23 07:02:00,
2014-02-23 02:17:00,23.7,20.0,30.01,SW,217,0.0,-999.0,87,-99.99,,,0.00,weatherlink.com 1.10,2014-02-23 07:17:00,
2014-02-23 02:32:00,23.3,20.0,30.01,SW,217,0.0,-999.0,86,-99.99,,,0.00,weatherlink.com 1.10,2014-02-23 07:32:00,
2014-02-23 02:47:00,23.0,19.0,30.01,SW,217,0.0,-999.0,86,-99.99,,,0.00,weatherlink.com 1.10,2014-02-23 07:47:00,
2014-02-23 03:02:00,22.5,19.0,30.01,SW,217,0.0,-999.0,86,-99.99,,,0.00,weatherlink.com 1.10,2014-02-23 08:02:00,
2014-02-23 03:17:00,22.1,19.0,30.02,SW,217,0.0,-999.0,86,-99.99,,,0.00,weatherlink.com 1.10,2014-02-23 08:17:00,
2014-02-23 03:32:00,21.9,19.0,30.02,SW,217,0.0,-999.0,87,-99.99,,,0.00,weatherlink.com 1.10,2014-02-23 08:32:00,
2014-02-23 03:47:00,21.6,18.0,30.02,SW,217,0.0,-999.0,87,-99.99,,,0.00,weatherlink.com 1.10,2014-02-23 08:47:00,
2014-02-23 04:02:00,21.3,18.0,30.02,SW,217,0.0,-999.0,87,-99.99,,,0.00,weatherlink.com 1.10,2014-02-23 09:02:00,
2014-02-23 04:18:00,21.0,18.0,30.03,SW,217,0.0,-999.0,87,-99.99,,,0.00,weatherlink.com 1.10,2014-02-23 09:18:00,
2014-02-23 04:33:00,20.7,17.0,30.04,SW,217,0.0,-999.0,87,-99.99,,,0.00,weatherlink.com 1.10,2014-02-23 09:33:00,
2014-02-23 04:48:00,20.5,17.0,30.04,SW,217,0.0,-999.0,87,-99.99,,,0.00,weatherlink.com 1.10,2014-02-23 09:48:00,
2014-02-23 05:03:00,20.3,17.0,30.04,SW,217,0.0,-999.0,88,-99.99,,,0.00,weatherlink.com 1.10,2014-02-23 10:03:00,
2014-02-23 05:18:00,20.2,17.0,30.05,SW,217,0.0,-999.0,88,-99.99,,,0.00,weatherlink.com 1.10,2014-02-23 10:18:00,
2014-02-23 05:33:00,19.9,17.0,30.05,SW,217,0.0,-999.0,88,-99.99,,,0.00,weatherlink.com 1.10,2014-02-23 10:33:00,
2014-02-23 05:48:00,19.8,17.0,30.05,SW,217,0.0,-999.0,88,-99.99,,,0.00,weatherlink.com 1.10,2014-02-23 10:48:00,
2014-02-23 06:03:00,19.6,17.0,30.05,SW,217,0.0,-999.0,88,-99.99,,,0.00,weatherlink.com 1.10,2014-02-23 11:03:00,
2014-02-23 06:18:00,19.4,16.0,30.05,SW,217,0.0,-999.0,88,-99.99,,,0.00,weatherlink.com 1.10,2014-02-23 11:18:00,
2014-02-23 06:33:00,19.2,16.0,30.04,SW,217,0.0,-999.0,88,-99.99,,,0.00,weatherlink.com 1.10,2014-02-23 11:33:00,
2014-02-23 06:48:00,19.2,16.0,30.04,SW,217,0.0,-999.0,88,-99.99,,,0.00,weatherlink.com 1.10,2014-02-23 11:48:00,
2014-02-23 07:03:00,19.3,17.0,30.04,SW,217,0.0,-999.0,89,-99.99,,,0.00,weatherlink.com 1.10,2014-02-23 12:03:00,
2014-02-23 07:18:00,19.6,17.0,30.05,SW,217,0.0,-999.0,89,-99.99,,,0.00,weatherlink.com 1.10,2014-02-23 12:18:00,
2014-02-23 07:33:00,20.0,17.0,30.05,SW,217,0.0,-999.0,89,-99.99,,,0.00,weatherlink.com 1.10,2014-02-23 12:33:00,
2014-02-23 07:48:00,20.8,18.0,30.05,SW,217,0.0,-999.0,90,-99.99,,,0.00,weatherlink.com 1.10,2014-02-23 12:48:00,
2014-02-23 08:03:00,21.7,19.0,30.04,SW,217,0.0,-999.0,90,-99.99,,,0.00,weatherlink.com 1.10,2014-02-23 13:03:00,
2014-02-23 08:18:00,22.8,21.0,30.04,SW,217,0.0,-999.0,91,-99.99,,,0.00,weatherlink.com 1.10,2014-02-23 13:18:00,
2014-02-23 08:33:00,23.8,22.0,30.04,SW,217,0.0,-999.0,91,-99.99,,,0.00,weatherlink.com 1.10,2014-02-23 13:33:00,
2014-02-23 08:48:00,24.8,23.0,30.03,SW,217,0.0,-999.0,91,-99.99,,,0.00,weatherlink.com 1.10,2014-02-23 13:48:00,
2014-02-23 09:03:00,26.7,25.0,30.04,SW,217,0.0,-999.0,91,-99.99,,,0.00,weatherlink.com 1.10,2014-02-23 14:03:00,
2014-02-23 09:18:00,27.7,26.0,30.04,SW,217,0.0,-999.0,91,-99.99,,,0.00,weatherlink.com 1.10,2014-02-23 14:18:00,
2014-02-23 09:33:00,29.1,26.0,30.04,SW,217,0.0,-999.0,89,-99.99,,,0.00,weatherlink.com 1.10,2014-02-23 14:33:00,
2014-02-23 09:48:00,30.1,27.0,30.04,SW,217,0.0,-999.0,88,-99.99,,,0.00,weatherlink.com 1.10,2014-02-23 14:48:00,
2014-02-23 10:03:00,31.6,28.0,30.04,SW,217,0.0,-999.0,87,-99.99,,,0.00,weatherlink.com 1.10,2014-02-23 15:03:00,
2014-02-23 10:18:00,33.6,29.0,30.03,SW,217,0.0,-999.0,82,-99.99,,,0.00,weatherlink.com 1.10,2014-02-23 15:18:00,
2014-02-23 10:33:00,35.2,29.0,30.02,SW,217,0.0,-999.0,78,-99.99,,,0.00,weatherlink.com 1.10,2014-02-23 15:33:00,
2014-02-23 10:48:00,39.7,31.0,30.01,SW,217,0.0,-999.0,72,-99.99,,,0.00,weatherlink.com 1.10,2014-02-23 15:48:00,
2014-02-23 11:03:00,42.6,32.0,30.00,SW,215,1.0,-999.0,67,-99.99,,,0.00,weatherlink.com 1.10,2014-02-23 16:03:00,
2014-02-23 11:18:00,44.6,33.0,30.00,SSW,213,0.0,-999.0,63,-99.99,,,0.00,weatherlink.com 1.10,2014-02-23 16:18:00,
2014-02-23 11:34:00,45.7,32.0,29.99,SSW,213,0.0,-999.0,60,-99.99,,,0.00,weatherlink.com 1.10,2014-02-23 16:34:00,
2014-02-23 11:49:00,46.9,33.0,29.98,SSW,213,1.0,-999.0,58,-99.99,,,0.00,weatherlink.com 1.10,2014-02-23 16:49:00,
2014-02-23 12:04:00,47.2,33.0,29.97,SSW,213,3.0,-999.0,58,-99.99,,,0.00,weatherlink.com 1.10,2014-02-23 17:04:00,
2014-02-23 12:19:00,47.9,33.0,29.97,SSW,204,0.0,-999.0,57,-99.99,,,0.00,weatherlink.com 1.10,2014-02-23 17:19:00,
2014-02-23 12:34:00,49.7,33.0,29.96,South,183,0.0,-999.0,53,-99.99,,,0.00,weatherlink.com 1.10,2014-02-23 17:34:00,
2014-02-23 12:49:00,51.0,33.0,29.96,South,179,2.0,-999.0,51,-99.99,,,0.00,weatherlink.com 1.10,2014-02-23 17:49:00,
2014-02-23 13:04:00,51.4,34.0,29.95,South,178,1.0,-999.0,51,-99.99,,,0.00,weatherlink.com 1.10,2014-02-23 18:04:00,
2014-02-23 13:19:00,51.9,34.0,29.93,South,178,1.0,-999.0,51,-99.99,,,0.00,weatherlink.com 1.10,2014-02-23 18:19:00,
2014-02-23 13:34:00,51.7,33.0,29.93,South,179,0.0,-999.0,50,-99.99,,,0.00,weatherlink.com 1.10,2014-02-23 18:34:00,
2014-02-23 13:49:00,51.7,33.0,29.93,South,179,0.0,-999.0,49,-99.99,,,0.00,weatherlink.com 1.10,2014-02-23 18:49:00,
2014-02-23 14:04:00,51.3,33.0,29.92,South,179,1.0,-999.0,49,-99.99,,,0.00,weatherlink.com 1.10,2014-02-23 19:04:00,
2014-02-23 14:19:00,51.0,33.0,29.92,South,180,0.0,-999.0,50,-99.99,,,0.00,weatherlink.com 1.10,2014-02-23 19:19:00,
2014-02-23 14:34:00,50.8,33.0,29.92,South,180,0.0,-999.0,51,-99.99,,,0.00,weatherlink.com 1.10,2014-02-23 19:34:00,
2014-02-23 14:35:00,50.8,33.3,29.92,South,180,0.0,0.0,51,0.00,,,0.00,Wunderground v.1.15,2014-02-23 19:35:00,
2014-02-23 14:40:00,50.9,32.9,29.92,South,180,0.0,0.0,50,0.00,,,0.00,Wunderground v.1.15,2014-02-23 19:40:00,
2014-02-23 14:45:00,51.1,33.1,29.91,South,180,0.0,1.0,50,0.00,,,0.00,Wunderground v.1.15,2014-02-23 19:45:00,
2014-02-23 14:50:00,51.4,33.9,29.91,South,180,0.0,1.0,51,0.00,,,0.00,Wunderground v.1.15,2014-02-23 19:50:00,
2014-02-23 15:00:00,52.5,33.9,29.89,South,180,0.0,0.0,49,0.00,,,0.00,Wunderground v.1.15,2014-02-23 20:00:00,
2014-02-23 15:04:00,52.8,33.0,29.89,South,180,1.0,-999.0,48,-99.99,,,0.00,weatherlink.com 1.10,2014-02-23 20:04:00,
2014-02-23 15:10:00,52.6,33.5,29.89,South,182,1.0,2.0,48,0.00,,,0.00,Wunderground v.1.15,2014-02-23 20:10:00,
2014-02-23 15:15:00,52.5,34.4,29.90,South,182,1.0,2.0,50,0.00,,,0.00,Wunderground v.1.15,2014-02-23 20:15:00,
2014-02-23 15:19:00,52.1,33.0,29.90,SSW,197,2.0,-999.0,48,-99.99,,,0.00,weatherlink.com 1.10,2014-02-23 20:19:00,
2014-02-23 15:25:00,51.4,33.4,29.90,SW,224,1.0,5.0,50,0.00,,,0.00,Wunderground v.1.15,2014-02-23 20:25:00,
2014-02-23 15:30:00,51.5,34.0,29.90,South,185,1.0,1.0,51,0.00,,,0.00,Wunderground v.1.15,2014-02-23 20:30:00,
2014-02-23 15:35:00,51.1,33.0,29.89,WSW,238,3.0,-999.0,50,-99.99,,,0.00,weatherlink.com 1.10,2014-02-23 20:35:00,
2014-02-23 15:45:00,50.6,33.6,29.89,WSW,238,1.0,1.0,52,0.00,,,0.00,Wunderground v.1.15,2014-02-23 20:45:00,
2014-02-23 15:50:00,50.3,34.0,29.89,WSW,238,1.0,-999.0,53,-99.99,,,0.00,weatherlink.com 1.10,2014-02-23 20:50:00,
2014-02-23 15:55:00,50.0,34.0,29.89,WSW,238,0.0,1.0,54,0.00,,,0.00,Wunderground v.1.15,2014-02-23 20:55:00,
2014-02-23 16:00:00,50.0,34.5,29.89,WSW,238,0.0,1.0,55,0.00,,,0.00,Wunderground v.1.15,2014-02-23 21:00:00,
2014-02-23 16:05:00,50.0,34.0,29.89,WSW,238,0.0,-999.0,54,-99.99,,,0.00,weatherlink.com 1.10,2014-02-23 21:05:00,
2014-02-23 16:15:00,49.3,33.3,29.89,SSW,207,1.0,1.0,54,0.00,,,0.00,Wunderground v.1.15,2014-02-23 21:15:00,
2014-02-23 16:20:00,49.0,33.0,29.89,SSW,207,0.0,-999.0,55,-99.99,,,0.00,weatherlink.com 1.10,2014-02-23 21:20:00,
2014-02-23 16:25:00,48.9,33.4,29.89,SSW,207,0.0,2.0,55,0.00,,,0.00,Wunderground v.1.15,2014-02-23 21:25:00,
2014-02-23 16:35:00,48.1,33.1,29.89,WSW,238,0.0,1.0,56,0.00,,,0.00,Wunderground v.1.15,2014-02-23 21:35:00,
2014-02-23 16:36:00,48.0,33.0,29.89,WSW,238,0.0,-999.0,56,-99.99,,,0.00,weatherlink.com 1.10,2014-02-23 21:36:00,
2014-02-23 16:45:00,47.2,33.2,29.89,WSW,238,0.0,1.0,58,0.00,,,0.00,Wunderground v.1.15,2014-02-23 21:45:00,
2014-02-23 16:51:00,46.7,32.0,29.89,WSW,238,0.0,-999.0,58,-99.99,,,0.00,weatherlink.com 1.10,2014-02-23 21:51:00,
2014-02-23 17:00:00,45.9,32.8,29.90,WSW,238,0.0,1.0,60,0.00,,,0.00,Wunderground v.1.15,2014-02-23 22:00:00,
2014-02-23 17:06:00,45.6,32.0,29.91,WSW,238,0.0,-999.0,60,-99.99,,,0.00,weatherlink.com 1.10,2014-02-23 22:06:00,
2014-02-23 17:10:00,45.4,32.7,29.91,WSW,238,0.0,1.0,61,0.00,,,0.00,Wunderground v.1.15,2014-02-23 22:10:00,
2014-02-23 17:15:00,45.1,32.4,29.90,WSW,238,0.0,1.0,61,0.00,,,0.00,Wunderground v.1.15,2014-02-23 22:15:00,
2014-02-23 17:22:00,44.8,32.0,29.91,WSW,238,0.0,-999.0,62,-99.99,,,0.00,weatherlink.com 1.10,2014-02-23 22:22:00,
2014-02-23 17:25:00,44.6,32.4,29.91,WSW,238,0.0,1.0,62,0.00,,,0.00,Wunderground v.1.15,2014-02-23 22:25:00,
2014-02-23 17:35:00,44.2,32.4,29.92,WSW,238,0.0,2.0,63,0.00,,,0.00,Wunderground v.1.15,2014-02-23 22:35:00,
2014-02-23 17:37:00,44.1,32.0,29.92,WSW,238,1.0,-999.0,63,-99.99,,,0.00,weatherlink.com 1.10,2014-02-23 22:37:00,
2014-02-23 17:45:00,44.4,31.8,29.92,WSW,244,2.0,3.0,61,0.00,,,0.00,Wunderground v.1.15,2014-02-23 22:45:00,
2014-02-23 17:51:00,44.5,31.0,29.92,SW,222,3.0,-999.0,60,-99.99,,,0.00,weatherlink.com 1.10,2014-02-23 22:51:00,
2014-02-23 18:00:00,45.0,31.5,29.92,SW,226,4.0,4.0,59,0.00,,,0.00,Wunderground v.1.15,2014-02-23 23:00:00,
2014-02-23 18:06:00,44.6,31.0,29.92,SW,222,1.0,-999.0,60,-99.99,,,0.00,weatherlink.com 1.10,2014-02-23 23:06:00,
2014-02-23 18:15:00,44.0,31.4,29.93,SW,221,4.0,5.0,61,0.00,,,0.00,Wunderground v.1.15,2014-02-23 23:15:00,
2014-02-23 18:21:00,43.7,31.0,29.93,SSW,203,8.0,-999.0,62,-99.99,,,0.00,weatherlink.com 1.10,2014-02-23 23:21:00,
2014-02-23 18:30:00,43.3,29.9,29.93,West,267,5.0,5.0,59,0.00,,,0.00,Wunderground v.1.15,2014-02-23 23:30:00,
2014-02-23 18:35:00,43.0,29.6,29.93,WNW,290,4.0,5.0,59,0.00,,,0.00,Wunderground v.1.15,2014-02-23 23:35:00,
2014-02-23 18:37:00,43.0,29.0,29.93,WNW,284,3.0,-999.0,59,-99.99,,,0.00,weatherlink.com 1.10,2014-02-23 23:37:00,
2014-02-23 18:45:00,42.5,29.2,29.93,SW,223,3.0,4.0,59,0.00,,,0.00,Wunderground v.1.15,2014-02-23 23:45:00,
2014-02-23 18:52:00,42.3,29.0,29.93,WSW,248,4.0,-999.0,59,-99.99,,,0.00,weatherlink.com 1.10,2014-02-23 23:52:00,
2014-02-23 19:00:00,42.1,27.9,29.93,WNW,298,3.0,3.0,57,0.00,,,0.00,Wunderground v.1.15,2014-02-24 00:00:00,
2014-02-23 19:07:00,41.9,27.0,29.93,WSW,241,2.0,-999.0,57,-99.99,,,0.00,weatherlink.com 1.10,2014-02-24 00:07:00,
2014-02-23 19:10:00,41.8,27.7,29.92,SW,216,3.0,4.0,57,0.00,,,0.00,Wunderground v.1.15,2014-02-24 00:10:00,
2014-02-23 19:15:00,41.8,27.7,29.92,WSW,238,3.0,4.0,57,0.00,,,0.00,Wunderground v.1.15,2014-02-24 00:15:00,
2014-02-23 19:23:00,41.6,27.0,29.92,West,261,1.0,-999.0,56,-99.99,,,0.00,weatherlink.com 1.10,2014-02-24 00:23:00,
2014-02-23 19:30:00,41.6,26.6,29.92,West,267,2.0,2.0,55,0.00,,,0.00,Wunderground v.1.15,2014-02-24 00:30:00,
2014-02-23 19:37:00,41.6,27.0,29.92,West,263,3.0,-999.0,56,-99.99,,,0.00,weatherlink.com 1.10,2014-02-24 00:37:00,
2014-02-23 19:45:00,41.5,27.0,29.92,SSW,211,2.0,2.0,56,0.00,,,0.00,Wunderground v.1.15,2014-02-24 00:45:00,
2014-02-23 19:50:00,41.3,27.6,29.92,SW,236,2.0,2.0,58,0.00,,,0.00,Wunderground v.1.15,2014-02-24 00:50:00,
2014-02-23 19:53:00,41.2,28.0,29.92,SW,222,0.0,-999.0,59,-99.99,,,0.00,weatherlink.com 1.10,2014-02-24 00:53:00,
2014-02-23 20:00:00,40.7,27.9,29.92,SW,227,0.0,2.0,60,0.00,,,0.00,Wunderground v.1.15,2014-02-24 01:00:00,
2014-02-23 20:05:00,40.5,27.7,29.92,SW,227,1.0,2.0,60,0.00,,,0.00,Wunderground v.1.15,2014-02-24 01:05:00,
2014-02-23 20:08:00,40.4,27.0,29.91,SW,227,0.0,-999.0,60,-99.99,,,0.00,weatherlink.com 1.10,2014-02-24 01:08:00,
2014-02-23 20:15:00,40.2,27.8,29.91,SW,227,0.0,1.0,61,0.00,,,0.00,Wunderground v.1.15,2014-02-24 01:15:00,
2014-02-23 20:22:00,40.0,28.0,29.91,SW,227,0.0,-999.0,62,-99.99,,,0.00,weatherlink.com 1.10,2014-02-24 01:22:00,
2014-02-23 20:25:00,40.0,27.6,29.91,SW,236,0.0,1.0,61,0.00,,,0.00,Wunderground v.1.15,2014-02-24 01:25:00,
2014-02-23 20:35:00,39.9,27.9,29.91,WSW,253,0.0,1.0,62,0.00,,,0.00,Wunderground v.1.15,2014-02-24 01:35:00,
2014-02-23 20:38:00,39.9,27.0,29.91,WSW,253,3.0,-999.0,61,-99.99,,,0.00,weatherlink.com 1.10,2014-02-24 01:38:00,
2014-02-23 20:45:00,39.9,27.9,29.91,WSW,254,1.0,2.0,62,0.00,,,0.00,Wunderground v.1.15,2014-02-24 01:45:00,
2014-02-23 20:50:00,39.8,27.8,29.91,WSW,254,0.0,2.0,62,0.00,,,0.00,Wunderground v.1.15,2014-02-24 01:50:00,
2014-02-23 20:53:00,39.8,28.0,29.91,WSW,254,0.0,-999.0,62,-99.99,,,0.00,weatherlink.com 1.10,2014-02-24 01:53:00,
2014-02-23 21:00:00,39.8,27.8,29.91,WSW,254,0.0,1.0,62,0.00,,,0.00,Wunderground v.1.15,2014-02-24 02:00:00,
2014-02-23 21:09:00,39.6,28.0,29.91,WSW,254,0.0,-999.0,64,-99.99,,,0.00,weatherlink.com 1.10,2014-02-24 02:09:00,
2014-02-23 21:15:00,39.5,28.3,29.92,WSW,254,0.0,2.0,64,0.00,,,0.00,Wunderground v.1.15,2014-02-24 02:15:00,
2014-02-23 21:20:00,39.3,28.5,29.91,WSW,254,0.0,1.0,65,0.00,,,0.00,Wunderground v.1.15,2014-02-24 02:20:00,
2014-02-23 21:23:00,39.3,28.0,29.91,WSW,254,0.0,-999.0,65,-99.99,,,0.00,weatherlink.com 1.10,2014-02-24 02:23:00,
2014-02-23 21:25:00,39.2,28.4,29.92,WSW,254,0.0,1.0,65,0.00,,,0.00,Wunderground v.1.15,2014-02-24 02:25:00,
2014-02-23 21:35:00,39.0,28.2,29.91,WSW,254,0.0,1.0,65,0.00,,,0.00,Wunderground v.1.15,2014-02-24 02:35:00,
2014-02-23 21:39:00,38.9,28.0,29.91,WSW,254,0.0,-999.0,66,-99.99,,,0.00,weatherlink.com 1.10,2014-02-24 02:39:00,
2014-02-23 21:45:00,38.8,28.4,29.91,WSW,254,0.0,1.0,66,0.00,,,0.00,Wunderground v.1.15,2014-02-24 02:45:00,
2014-02-23 21:54:00,38.7,29.0,29.91,WSW,254,1.0,-999.0,67,-99.99,,,0.00,weatherlink.com 1.10,2014-02-24 02:54:00,
2014-02-23 22:00:00,38.6,28.6,29.91,WSW,254,0.0,1.0,67,0.00,,,0.00,Wunderground v.1.15,2014-02-24 03:00:00,
2014-02-23 22:05:00,38.5,28.9,29.91,WSW,254,0.0,1.0,68,0.00,,,0.00,Wunderground v.1.15,2014-02-24 03:05:00,
2014-02-23 22:08:00,38.4,29.0,29.91,WSW,254,0.0,-999.0,68,-99.99,,,0.00,weatherlink.com 1.10,2014-02-24 03:08:00,
2014-02-23 22:15:00,38.2,28.9,29.91,WSW,254,0.0,1.0,69,0.00,,,0.00,Wunderground v.1.15,2014-02-24 03:15:00,
2014-02-23 22:24:00,38.1,29.0,29.90,WSW,254,0.0,-999.0,70,-99.99,,,0.00,weatherlink.com 1.10,2014-02-24 03:24:00,
2014-02-23 22:39:00,37.8,29.0,29.90,WSW,254,0.0,-999.0,71,-99.99,,,0.00,weatherlink.com 1.10,2014-02-24 03:39:00,
2014-02-23 22:54:00,37.6,29.0,29.90,WSW,254,2.0,-999.0,71,-99.99,,,0.00,weatherlink.com 1.10,2014-02-24 03:54:00,
2014-02-23 23:09:00,37.4,29.0,29.90,WSW,254,0.0,-999.0,72,-99.99,,,0.00,weatherlink.com 1.10,2014-02-24 04:09:00,
2014-02-23 23:24:00,37.2,29.0,29.90,WSW,254,0.0,-999.0,72,-99.99,,,0.00,weatherlink.com 1.10,2014-02-24 04:24:00,
2014-02-23 23:39:00,37.1,29.0,29.89,WSW,254,0.0,-999.0,73,-99.99,,,0.00,weatherlink.com 1.10,2014-02-24 04:39:00,
2014-02-23 23:54:00,36.8,29.0,29.89,WSW,254,0.0,-999.0,73,-99.99,,,0.00,weatherlink.com 1.10,2014-02-24 04:54:00,